Time;durP1;ratioP1;P1;durP2;ratioP2;P2;SDS_P1;SDS_P2;PMS_P1;PMS_P2;Temp;Humidity;BMP_temperature;BMP_pressure;BME280_temperature;BME280_humidity;BME280_pressure;Samples;Min_cycle;Max_cycle;Signal;HPM_P1;HPM_P2
2022/03/29 00:05:41;;;;;;;33.90;19.90;;;;;;;8.74;53.07;98059.23;432635;1270;108890;-41
2022/03/29 00:15:48;;;;;;;40.60;22.50;;;;;;;8.62;53.17;98047.80;432605;1271;99164;-41
2022/03/29 00:25:55;;;;;;;35.00;20.20;;;;;;;8.47;53.45;98050.58;432353;1271;112097;-42
2022/03/29 00:36:03;;;;;;;36.10;21.10;;;;;;;8.59;54.30;98060.98;432248;1271;108774;-43
2022/03/29 00:46:10;;;;;;;37.60;21.60;;;;;;;8.64;54.37;98053.75;432463;1270;99282;-42
2022/03/29 00:56:19;;;;;;;32.50;20.30;;;;;;;8.57;54.48;98042.48;432379;1271;112428;-42
2022/03/29 01:06:26;;;;;;;34.30;19.60;;;;;;;8.49;54.64;98016.44;432991;1261;108741;-45
2022/03/29 01:37:04;;;;;;;38.30;21.80;;;;;;;8.58;55.35;97997.26;432396;1271;112429;-42
2022/03/29 01:47:12;;;;;;;36.60;20.30;;;;;;;8.62;55.43;97985.55;432439;1271;108299;-42
2022/03/29 01:57:19;;;;;;;38.20;21.20;;;;;;;8.57;55.60;97976.14;432170;1271;99347;-42
2022/03/29 02:07:26;;;;;;;43.00;23.00;;;;;;;8.39;55.81;97961.84;432372;1270;99389;-46
2022/03/29 02:17:34;;;;;;;37.50;22.60;;;;;;;8.17;55.85;97947.50;432159;1270;112483;-42
2022/03/29 02:27:41;;;;;;;42.20;21.90;;;;;;;8.09;56.23;97944.95;432204;1271;108864;-41
2022/03/29 02:37:48;;;;;;;38.00;22.50;;;;;;;8.02;56.61;97939.75;432398;1271;99254;-41
2022/03/29 02:47:56;;;;;;;39.80;21.40;;;;;;;7.89;56.93;97931.98;432272;1271;108839;-43
2022/03/29 02:58:03;;;;;;;35.70;22.40;;;;;;;7.76;57.24;97926.30;432052;1271;98867;-43
2022/03/29 03:08:09;;;;;;;44.80;25.10;;;;;;;7.60;57.44;97926.58;432273;1271;112904;-43
2022/03/29 03:18:17;;;;;;;45.10;27.10;;;;;;;7.39;57.79;97911.98;432463;1271;108936;-46
2022/03/29 03:28:24;;;;;;;39.90;21.20;;;;;;;7.23;58.01;97897.23;432095;1270;99299;-41
2022/03/29 03:38:31;;;;;;;31.60;19.00;;;;;;;7.18;58.28;97901.52;432312;1271;112424;-40
2022/03/29 03:48:38;;;;;;;45.10;23.80;;;;;;;7.18;58.66;97900.26;432317;1271;108663;-43
2022/03/29 03:58:45;;;;;;;53.30;28.40;;;;;;;7.12;58.95;97898.13;432303;1271;97944;-43
2022/03/29 04:08:52;;;;;;;49.50;26.90;;;;;;;7.06;59.18;97908.83;432310;1271;108819;-43
2022/03/29 04:18:59;;;;;;;47.70;24.00;;;;;;;6.99;59.48;97912.02;432471;1271;99260;-42
2022/03/29 04:29:07;;;;;;;43.40;24.60;;;;;;;6.92;59.76;97906.29;432400;1271;112306;-44
2022/03/29 04:39:15;;;;;;;42.20;23.70;;;;;;;7.01;59.97;97905.34;432206;1271;108914;-42
2022/03/29 04:49:22;;;;;;;38.70;20.60;;;;;;;7.18;60.07;97896.53;432286;1271;99289;-41
2022/03/29 04:59:29;;;;;;;44.50;27.40;;;;;;;7.29;60.28;97904.84;432526;1271;113962;-42
2022/03/29 05:09:36;;;;;;;48.10;27.60;;;;;;;7.35;60.35;97901.38;432309;1271;109242;-44
2022/03/29 05:19:43;;;;;;;58.50;28.50;;;;;;;7.30;60.29;97906.73;432268;1271;99375;-41
2022/03/29 05:29:50;;;;;;;49.10;28.40;;;;;;;7.26;60.50;97922.78;432311;1271;108853;-42
2022/03/29 05:39:58;;;;;;;52.00;27.70;;;;;;;7.43;60.60;97941.38;432353;1271;98054;-41
2022/03/29 05:50:04;;;;;;;85.60;26.40;;;;;;;7.55;60.85;97957.30;432644;1271;111445;-41
2022/03/29 06:00:13;;;;;;;32.10;17.60;;;;;;;7.70;61.32;97972.39;432224;1271;108965;-41
2022/03/29 06:10:20;;;;;;;33.30;21.40;;;;;;;8.06;61.63;97973.57;432306;1271;99247;-41
2022/03/29 06:20:25;;;;;;;36.90;21.10;;;;;;;9.19;61.32;97972.63;432319;1271;108845;-41
2022/03/29 06:30:32;;;;;;;31.80;18.50;;;;;;;9.96;59.81;97980.36;432447;1271;99273;-40
2022/03/29 06:50:46;;;;;;;28.20;17.00;;;;;;;10.36;58.27;97974.20;432420;1271;108769;-43
2022/03/29 07:00:54;;;;;;;30.30;18.20;;;;;;;10.11;58.08;97968.37;432347;1271;99404;-41
2022/03/29 07:11:22;;;;;;;28.40;17.80;;;;;;;10.08;58.27;97963.27;432437;1270;108857;-40
2022/03/29 07:21:29;;;;;;;32.60;16.60;;;;;;;10.44;58.03;97957.12;432467;1271;98404;-41
2022/03/29 07:31:39;;;;;;;28.00;17.80;;;;;;;10.90;57.11;97953.02;432540;1271;112429;-41
2022/03/29 07:41:46;;;;;;;24.20;14.30;;;;;;;11.01;56.44;97957.52;432251;1271;108799;-43
2022/03/29 07:51:53;;;;;;;22.70;16.30;;;;;;;11.07;56.28;97959.08;432523;1271;99267;-41
2022/03/29 08:02:00;;;;;;;27.10;15.00;;;;;;;11.21;55.82;97954.13;432227;1271;108881;-45
2022/03/29 08:12:09;;;;;;;28.10;15.10;;;;;;;10.82;56.02;97954.52;432303;1271;99460;-44
2022/03/29 08:22:16;;;;;;;23.20;15.30;;;;;;;11.01;55.96;97950.49;432624;1271;112375;-41
2022/03/29 08:32:24;;;;;;;24.20;15.70;;;;;;;11.13;55.71;97951.16;432321;1271;108795;-42
2022/03/29 08:42:31;;;;;;;26.80;15.60;;;;;;;10.79;55.92;97953.64;432688;1271;99271;-41
2022/03/29 09:02:46;;;;;;;41.20;20.60;;;;;;;11.35;55.16;97934.10;432436;1271;98879;-44
2022/03/29 09:12:54;;;;;;;32.30;17.90;;;;;;;11.11;54.92;97927.16;432027;1271;454733;-41
2022/03/29 09:23:01;;;;;;;25.70;15.60;;;;;;;11.17;54.64;97919.64;432367;1271;108771;-43
2022/03/29 09:33:11;;;;;;;28.10;16.20;;;;;;;11.50;54.27;97915.00;431866;1274;99278;-42
2022/03/29 09:43:21;;;;;;;35.20;16.30;;;;;;;11.59;53.91;97907.51;432437;1271;108810;-41
2022/03/29 09:53:37;;;;;;;26.40;16.50;;;;;;;12.05;53.78;97896.13;432436;1271;99269;-41
2022/03/29 10:03:45;;;;;;;24.70;15.60;;;;;;;12.44;53.07;97886.98;432369;1271;112452;-41
2022/03/29 10:13:52;;;;;;;23.50;13.90;;;;;;;12.67;52.05;97871.36;432279;1269;108648;-42
2022/03/29 10:24:01;;;;;;;19.20;12.90;;;;;;;12.77;51.37;97871.39;432458;1271;99392;-42
2022/03/29 10:34:17;;;;;;;76.20;16.10;;;;;;;13.12;51.23;97864.66;432401;1271;108804;-45
2022/03/29 10:44:24;;;;;;;23.80;13.30;;;;;;;13.48;50.64;97849.60;432378;1271;99356;-42
2022/03/29 10:54:29;;;;;;;19.20;13.20;;;;;;;13.40;49.57;97836.60;432347;1271;112478;-42
2022/03/29 11:04:37;;;;;;;23.00;12.80;;;;;;;13.49;48.81;97823.96;432540;1271;108645;-41
2022/03/29 11:14:45;;;;;;;24.80;13.60;;;;;;;13.29;48.92;97818.49;432429;1271;99288;-41
2022/03/29 11:24:54;;;;;;;24.90;15.90;;;;;;;13.64;48.72;97811.70;432407;1271;108986;-41
2022/03/29 11:45:10;;;;;;;24.70;15.40;;;;;;;13.41;48.08;97800.05;432313;1271;112426;-41
2022/03/29 11:55:20;;;;;;;27.90;15.30;;;;;;;12.92;47.92;97792.46;432357;1271;108867;-41
2022/03/29 12:05:30;;;;;;;20.30;14.20;;;;;;;12.55;47.97;97784.23;432428;1271;99263;-43
2022/03/29 12:15:37;;;;;;;22.00;13.70;;;;;;;12.23;48.43;97780.88;432261;1271;108832;-41
2022/03/29 12:25:44;;;;;;;21.50;14.70;;;;;;;12.00;48.41;97774.55;432321;1271;98032;-41
2022/03/29 12:36:02;;;;;;;21.20;13.60;;;;;;;12.09;48.85;97765.05;432345;1271;112530;-42
2022/03/29 12:56:15;;;;;;;23.30;13.00;;;;;;;11.63;49.69;97739.02;432282;1271;99291;-41
2022/03/29 13:06:22;;;;;;;24.10;13.20;;;;;;;11.71;50.16;97727.15;432464;1271;112367;-41
2022/03/29 13:16:29;;;;;;;22.20;13.30;;;;;;;11.96;50.68;97718.36;432304;1271;108944;-42
2022/03/29 13:26:40;;;;;;;24.30;13.20;;;;;;;12.15;50.33;97703.48;431855;1272;99951;-41
2022/03/29 13:36:47;;;;;;;22.80;14.20;;;;;;;12.35;50.26;97687.12;432502;1271;108716;-41
2022/03/29 13:46:53;;;;;;;23.80;14.30;;;;;;;12.44;49.80;97675.35;432308;1271;99264;-43
2022/03/29 13:57:01;;;;;;;55.10;17.40;;;;;;;12.43;49.78;97671.02;432497;1270;112436;-41
2022/03/29 14:07:07;;;;;;;33.80;18.60;;;;;;;12.44;49.72;97661.36;432436;1271;109012;-43
2022/03/29 14:27:21;;;;;;;32.50;18.10;;;;;;;11.99;49.77;97647.16;432375;1271;108710;-42
2022/03/29 14:37:28;;;;;;;30.30;19.80;;;;;;;11.95;50.17;97636.29;432469;1271;99272;-42
2022/03/29 14:57:41;;;;;;;32.10;19.40;;;;;;;11.67;50.74;97631.27;432409;1271;108611;-41
2022/03/29 15:07:49;;;;;;;33.50;20.80;;;;;;;11.40;51.32;97627.48;432535;1271;99405;-42
2022/03/29 15:17:56;;;;;;;58.40;33.50;;;;;;;11.08;52.15;97627.48;432302;1271;109140;-42
2022/03/29 15:28:04;;;;;;;64.80;39.10;;;;;;;10.85;52.25;97621.44;432632;1271;99308;-42
2022/03/29 15:38:13;;;;;;;41.30;23.20;;;;;;;10.60;52.28;97620.33;432564;1271;111637;-42
2022/03/29 15:48:20;;;;;;;36.30;21.80;;;;;;;10.30;52.46;97615.19;432298;1269;108907;-42
2022/03/29 15:58:27;;;;;;;38.60;21.20;;;;;;;10.06;52.80;97615.73;431775;1272;99362;-42
2022/03/29 16:08:53;;;;;;;58.70;32.00;;;;;;;9.92;52.83;97604.95;432455;1271;108847;-41
2022/03/29 16:19:00;;;;;;;42.10;23.00;;;;;;;9.72;53.09;97612.19;432258;1271;99284;-44
2022/03/29 16:29:09;;;;;;;48.20;28.30;;;;;;;9.49;54.04;97619.08;432460;1271;112296;-42
2022/03/29 16:39:16;;;;;;;48.60;29.50;;;;;;;9.23;55.02;97631.00;432549;1271;109086;-41
2022/03/29 16:49:24;;;;;;;54.60;33.30;;;;;;;8.85;56.21;97638.20;432530;1271;99256;-42
2022/03/29 16:59:31;;;;;;;55.40;29.00;;;;;;;8.54;57.40;97638.44;432470;1271;109920;-41
2022/03/29 17:09:39;;;;;;;186.30;82.30;;;;;;;8.47;58.10;97637.01;432345;1271;99275;-43
2022/03/29 17:19:48;;;;;;;82.20;46.10;;;;;;;8.37;58.85;97641.02;432594;1271;112655;-42
2022/03/29 17:29:55;;;;;;;74.90;38.90;;;;;;;8.20;59.55;97636.02;432490;1271;108925;-42
2022/03/29 17:50:10;;;;;;;69.90;43.00;;;;;;;7.63;60.94;97645.65;432590;1270;109361;-43
2022/03/29 18:00:16;;;;;;;44.10;26.10;;;;;;;7.39;62.98;97662.17;432609;1271;99284;-43
2022/03/29 18:10:24;;;;;;;51.50;29.50;;;;;;;7.25;63.11;97675.67;432544;1271;112584;-41
2022/03/29 18:20:32;;;;;;;48.50;26.40;;;;;;;7.10;63.56;97674.65;432591;1271;107845;-42
2022/03/29 18:30:40;;;;;;;56.70;31.10;;;;;;;6.81;63.53;97668.25;432597;1271;99360;-45
2022/03/29 18:40:48;;;;;;;99.20;43.90;;;;;;;6.62;63.40;97665.63;432475;1271;109503;-43
2022/03/29 19:01:03;;;;;;;55.80;30.80;;;;;;;6.41;63.20;97666.38;432683;1271;112890;-41
2022/03/29 19:11:11;;;;;;;52.20;28.50;;;;;;;6.43;63.00;97668.48;432387;1269;108673;-44
2022/03/29 19:21:18;;;;;;;98.90;43.70;;;;;;;6.39;63.07;97663.70;432751;1271;99258;-45
2022/03/29 19:31:26;;;;;;;104.50;51.30;;;;;;;6.33;63.03;97665.85;432437;1271;107506;-41
2022/03/29 19:41:34;;;;;;;91.30;46.10;;;;;;;6.22;63.07;97659.61;432536;1271;98832;-41
2022/03/29 19:51:41;;;;;;;84.70;39.30;;;;;;;6.08;63.17;97661.09;432597;1271;99271;-43
2022/03/29 20:01:47;;;;;;;72.00;36.20;;;;;;;5.92;63.13;97659.37;432530;1270;112569;-42
2022/03/29 20:11:55;;;;;;;70.00;32.30;;;;;;;5.82;63.24;97658.36;431855;1272;109142;-42
2022/03/29 20:22:03;;;;;;;49.50;27.60;;;;;;;5.92;63.22;97654.54;431891;1272;99363;-43
2022/03/29 20:42:17;;;;;;;103.60;49.10;;;;;;;5.80;63.22;97646.29;432385;1270;109031;-42
2022/03/29 20:52:24;;;;;;;79.00;40.90;;;;;;;5.52;63.22;97652.34;432494;1270;98013;-42
2022/03/29 21:12:41;;;;;;;71.10;39.40;;;;;;;4.96;63.94;97647.86;432025;1270;483768;-42
2022/03/29 21:22:48;;;;;;;60.30;32.50;;;;;;;4.79;63.88;97644.98;432409;1270;99360;-43
2022/03/29 21:32:54;;;;;;;65.40;34.10;;;;;;;4.85;64.18;97650.71;432502;1269;108891;-42
2022/03/29 21:43:01;;;;;;;72.10;36.10;;;;;;;4.86;64.37;97652.42;432566;1270;99334;-41
2022/03/29 21:53:11;;;;;;;73.70;37.20;;;;;;;4.83;64.61;97651.66;432448;1270;112483;-42
2022/03/29 22:03:22;;;;;;;75.40;37.10;;;;;;;4.81;64.60;97647.58;432623;1271;108733;-44
2022/03/29 22:13:28;;;;;;;73.30;34.90;;;;;;;4.80;64.69;97649.79;432576;1270;99347;-43
2022/03/29 22:23:35;;;;;;;67.30;34.80;;;;;;;4.80;64.70;97650.20;432422;1271;112632;-42
2022/03/29 22:33:42;;;;;;;49.40;29.30;;;;;;;4.85;64.70;97643.85;432453;1270;109092;-42
2022/03/29 22:43:49;;;;;;;45.70;27.40;;;;;;;4.94;64.72;97641.06;432376;1270;99270;-42
2022/03/29 22:53:56;;;;;;;100.50;46.60;;;;;;;4.92;64.75;97637.86;432431;1270;112525;-42
2022/03/29 23:04:03;;;;;;;126.70;59.40;;;;;;;4.82;65.00;97633.02;432396;1270;108772;-42
2022/03/29 23:14:09;;;;;;;116.40;56.50;;;;;;;4.72;65.35;97625.61;432556;1269;99276;-42
2022/03/29 23:24:16;;;;;;;100.50;48.10;;;;;;;4.64;65.60;97628.35;432474;1270;111530;-43
2022/03/29 23:34:24;;;;;;;68.70;35.40;;;;;;;4.68;65.58;97626.48;432437;1270;108853;-42
2022/03/29 23:44:31;;;;;;;56.50;31.20;;;;;;;4.76;65.68;97619.71;432485;1270;99283;-42
2022/03/29 23:54:41;;;;;;;66.90;36.90;;;;;;;4.88;65.82;97615.38;432505;1270;112155;-42
